Terminal Aerodrome Forecast
Issued by NWS Charleston, WV

Current Version | Previous Version | Graphics & Text | Print | Product List | Glossary On
Versions: 1 2 3 4 5 6 7 8 9 10 11 12 13 14 15 16 17 18 19 20 21 22 23 24 25 26 27 28 29 30
000
FTUS41 KRLX 202300
TAFEKN
TAF
KEKN 202340Z 2100/2124 00000KT P6SM BKN080
      TEMPO 2100/2104 4SM -SHRA BR
     FM210400 00000KT P6SM -SHRA BKN060
     FM211200 00000KT 6SM -SHRA BR OVC025
     FM211700 28006KT 6SM -SHRA BR OVC035
     FM212200 30005KT 4SM -SHRA BR OVC025=

USA.gov is the U.S. government's official web portal to all federal, state and local government web resources and services.